Time;durP1;ratioP1;P1;durP2;ratioP2;P2;SDS_P1;SDS_P2;PMS_P1;PMS_P2;Temp;Humidity;BMP_temperature;BMP_pressure;BME280_temperature;BME280_humidity;BME280_pressure;Samples;Min_cycle;Max_cycle;Signal;HPM_P1;HPM_P2
2024/04/16 00:02:21;;;;;;;1999.90;999.90;;;11.60;99.90;;;;;;5315161;26;20050;-72
2024/04/16 00:04:47;;;;;;;1999.90;999.90;;;11.70;99.90;;;;;;5312878;27;20030;-72
2024/04/16 00:07:13;;;;;;;1999.90;999.90;;;11.60;99.90;;;;;;5312436;26;20030;-72
2024/04/16 00:09:39;;;;;;;1999.90;999.90;;;11.60;99.90;;;;;;5313533;26;20026;-72
2024/04/16 00:12:05;;;;;;;1999.90;999.90;;;11.60;99.90;;;;;;5312163;26;20030;-72
2024/04/16 00:14:32;;;;;;;1999.90;999.90;;;11.60;99.90;;;;;;5312631;26;20025;-72
2024/04/16 00:16:58;;;;;;;1999.90;999.90;;;11.50;99.90;;;;;;5312039;26;20379;-72
2024/04/16 00:19:24;;;;;;;1999.90;999.90;;;11.50;99.90;;;;;;5313109;26;20030;-72
2024/04/16 00:21:50;;;;;;;1999.90;999.90;;;11.40;99.90;;;;;;5312267;26;20038;-72
2024/04/16 00:24:16;;;;;;;1999.90;999.90;;;11.40;99.90;;;;;;5312893;26;20022;-72
2024/04/16 00:26:42;;;;;;;1999.90;999.90;;;11.30;99.90;;;;;;5312094;26;20482;-72
2024/04/16 00:29:08;;;;;;;1999.90;999.90;;;11.20;99.90;;;;;;5311855;27;20373;-72
2024/04/16 00:31:34;;;;;;;1999.90;999.90;;;11.10;99.90;;;;;;5311569;26;20112;-72
2024/04/16 00:34:00;;;;;;;1999.90;999.90;;;11.10;99.90;;;;;;5312594;26;20037;-72
2024/04/16 00:36:27;;;;;;;1999.90;999.90;;;11.10;99.90;;;;;;5311987;26;20038;-72
2024/04/16 00:38:53;;;;;;;1999.90;999.90;;;11.20;99.90;;;;;;5312144;27;20030;-72
2024/04/16 00:41:19;;;;;;;1999.90;999.90;;;11.10;99.90;;;;;;5312420;26;20378;-72
2024/04/16 00:43:45;;;;;;;1999.90;999.90;;;11.10;99.90;;;;;;5311818;27;20025;-72
2024/04/16 00:46:11;;;;;;;1999.90;999.90;;;11.00;99.90;;;;;;5319716;26;20044;-72
2024/04/16 00:48:37;;;;;;;1999.90;999.90;;;11.00;99.90;;;;;;5315540;26;20024;-72
2024/04/16 00:51:03;;;;;;;1999.90;999.90;;;11.10;99.90;;;;;;5345376;26;20032;-72
2024/04/16 00:53:29;;;;;;;1999.90;999.90;;;11.10;99.90;;;;;;5346536;26;20029;-72
2024/04/16 00:55:56;;;;;;;1999.90;999.90;;;11.00;99.90;;;;;;5333454;26;20041;-72
2024/04/16 00:58:22;;;;;;;1999.90;999.90;;;11.10;99.90;;;;;;5311922;26;20025;-72
2024/04/16 01:00:48;;;;;;;1999.90;999.90;;;11.10;99.90;;;;;;5309464;26;20030;-72
2024/04/16 01:03:14;;;;;;;1999.90;999.90;;;11.10;99.90;;;;;;5311286;27;20381;-79
2024/04/16 01:05:41;;;;;;;1999.90;999.90;;;11.00;99.90;;;;;;5311010;26;20469;-79
2024/04/16 01:08:10;;;;;;;1999.90;999.90;;;10.90;99.90;;;;;;5311817;27;20021;-79
2024/04/16 01:10:40;;;;;;;1999.90;999.90;;;10.90;99.90;;;;;;5309961;26;20085;-78
2024/04/16 01:13:06;;;;;;;1999.90;999.90;;;11.00;99.90;;;;;;5312159;26;20025;-79
2024/04/16 01:15:33;;;;;;;1999.90;999.90;;;11.00;99.90;;;;;;5310519;26;20030;-78
2024/04/16 01:17:59;;;;;;;1999.90;999.90;;;11.00;99.90;;;;;;5311631;27;20025;-79
2024/04/16 01:20:25;;;;;;;1999.90;999.90;;;11.00;99.90;;;;;;5311934;26;20026;-79
2024/04/16 01:22:51;;;;;;;1999.90;999.90;;;11.00;99.90;;;;;;5281270;27;20384;-78
2024/04/16 01:25:18;;;;;;;1999.90;999.90;;;11.00;99.90;;;;;;5310965;26;20027;-79
2024/04/16 01:27:44;;;;;;;1999.90;999.90;;;11.00;99.90;;;;;;5310359;26;20042;-79
2024/04/16 01:30:10;;;;;;;1999.90;999.90;;;10.90;99.90;;;;;;5310508;26;20023;-78
2024/04/16 01:32:36;;;;;;;1999.90;999.90;;;10.90;99.90;;;;;;5311364;26;20367;-79
2024/04/16 01:35:03;;;;;;;1999.90;999.90;;;10.90;99.90;;;;;;5311133;26;20025;-79
2024/04/16 01:37:29;;;;;;;1999.90;999.90;;;10.80;99.90;;;;;;5311998;26;20379;-79
2024/04/16 01:39:55;;;;;;;1999.90;999.90;;;10.80;99.90;;;;;;5310987;27;20029;-79
2024/04/16 01:42:21;;;;;;;1999.90;999.90;;;10.70;99.90;;;;;;5310304;26;20045;-79
2024/04/16 01:44:51;;;;;;;1999.90;999.90;;;10.70;99.90;;;;;;5309692;27;20018;-79
2024/04/16 01:47:17;;;;;;;1999.90;999.90;;;10.70;99.90;;;;;;5334528;26;20045;-79
2024/04/16 01:49:43;;;;;;;1999.90;999.90;;;10.70;99.90;;;;;;5345691;26;20034;-79
2024/04/16 01:52:09;;;;;;;1999.90;999.90;;;10.70;99.90;;;;;;5344806;26;20481;-79
2024/04/16 01:54:35;;;;;;;1999.90;999.90;;;10.70;99.90;;;;;;5344981;26;20025;-78
2024/04/16 01:57:02;;;;;;;1999.90;999.90;;;10.70;99.90;;;;;;5318316;26;20114;-78
2024/04/16 01:59:29;;;;;;;1999.90;999.90;;;10.60;99.90;;;;;;5312255;26;20038;-79
2024/04/16 02:01:55;;;;;;;1999.90;999.90;;;10.60;99.90;;;;;;5309825;26;20029;-79
2024/04/16 02:04:21;;;;;;;1999.90;999.90;;;10.60;99.90;;;;;;5334017;26;20064;-79
2024/04/16 02:06:47;;;;;;;1999.90;999.90;;;10.60;99.90;;;;;;5330561;26;20019;-79
2024/04/16 02:09:13;;;;;;;1999.90;999.90;;;10.60;99.90;;;;;;5334192;26;20029;-79
2024/04/16 02:11:39;;;;;;;1999.90;999.90;;;10.50;99.90;;;;;;5319103;26;20383;-79
2024/04/16 02:14:05;;;;;;;1999.90;999.90;;;10.50;99.90;;;;;;5312668;27;20025;-79
2024/04/16 02:16:31;;;;;;;1999.90;999.90;;;10.50;99.90;;;;;;5311669;26;20045;-79
2024/04/16 02:18:58;;;;;;;1999.90;999.90;;;10.50;99.90;;;;;;5310728;27;20029;-80
2024/04/16 02:21:24;;;;;;;1999.90;999.90;;;10.40;99.90;;;;;;5312272;26;20377;-80
2024/04/16 02:23:50;;;;;;;1999.90;999.90;;;10.40;99.90;;;;;;5329717;26;20037;-78
2024/04/16 02:26:16;;;;;;;1999.90;999.90;;;10.40;99.90;;;;;;5330082;26;20029;-79
2024/04/16 02:28:42;;;;;;;1999.90;999.90;;;10.40;99.90;;;;;;5313245;26;20402;-78
2024/04/16 02:31:09;;;;;;;1999.90;999.90;;;10.40;99.90;;;;;;5311272;26;20041;-78
2024/04/16 02:33:35;;;;;;;1999.90;999.90;;;10.40;99.90;;;;;;5313152;26;20018;-78
2024/04/16 02:36:02;;;;;;;1999.90;999.90;;;10.40;99.90;;;;;;5322947;26;20036;-79
2024/04/16 02:38:28;;;;;;;1999.90;999.90;;;10.40;99.90;;;;;;5348107;26;20037;-78
2024/04/16 02:40:55;;;;;;;1999.90;999.90;;;10.40;99.90;;;;;;5346139;26;20033;-79
2024/04/16 02:43:21;;;;;;;1999.90;999.90;;;10.30;99.90;;;;;;5348840;26;20367;-78
2024/04/16 02:45:47;;;;;;;1999.90;999.90;;;10.40;99.90;;;;;;5340731;26;20030;-79
2024/04/16 02:48:13;;;;;;;1999.90;999.90;;;10.30;99.90;;;;;;5348045;26;20024;-78
2024/04/16 02:50:40;;;;;;;1999.90;999.90;;;10.30;99.90;;;;;;5347885;26;20052;-78
2024/04/16 02:53:06;;;;;;;1999.90;999.90;;;10.30;99.90;;;;;;5345322;26;20021;-78
2024/04/16 02:55:33;;;;;;;1999.90;999.90;;;10.30;99.90;;;;;;5340253;26;20034;-73
2024/04/16 02:58:00;;;;;;;1999.90;999.90;;;10.30;99.90;;;;;;5313515;27;20025;-72
2024/04/16 03:00:26;;;;;;;1999.90;999.90;;;10.20;99.90;;;;;;5312881;26;20046;-72
2024/04/16 03:02:52;;;;;;;1999.90;999.90;;;10.10;99.90;;;;;;5313755;26;20026;-72
2024/04/16 03:05:18;;;;;;;1999.90;999.90;;;10.20;99.90;;;;;;5312872;26;20031;-72
2024/04/16 03:07:44;;;;;;;1999.90;999.90;;;10.10;99.90;;;;;;5313634;26;20034;-72
2024/04/16 03:10:15;;;;;;;1999.90;999.90;;;10.10;99.90;;;;;;5310635;26;20077;-72
2024/04/16 03:12:44;;;;;;;1999.90;999.90;;;10.10;99.90;;;;;;5313267;26;20381;-72
2024/04/16 03:15:11;;;;;;;1999.90;999.90;;;10.20;99.90;;;;;;5312879;26;20026;-72
2024/04/16 03:17:37;;;;;;;1999.90;999.90;;;10.20;99.90;;;;;;5313205;26;20502;-72
2024/04/16 03:20:04;;;;;;;1999.90;999.90;;;10.20;99.90;;;;;;5312177;26;20025;-72
2024/04/16 03:22:30;;;;;;;1999.90;999.90;;;10.10;99.90;;;;;;5313084;26;20038;-72
2024/04/16 03:24:56;;;;;;;1999.90;999.90;;;10.10;99.90;;;;;;5313148;27;20033;-72
2024/04/16 03:27:22;;;;;;;1999.90;999.90;;;10.20;99.90;;;;;;5313351;26;20041;-72
2024/04/16 03:29:49;;;;;;;1999.90;999.90;;;10.10;99.90;;;;;;5313549;26;20025;-72
2024/04/16 03:32:15;;;;;;;1999.90;999.90;;;10.10;99.90;;;;;;5312296;26;20041;-72
2024/04/16 03:34:41;;;;;;;1999.90;999.90;;;10.00;99.90;;;;;;5313574;26;20026;-72
2024/04/16 03:37:08;;;;;;;1999.90;999.90;;;10.10;99.90;;;;;;5312712;26;20373;-73
2024/04/16 03:39:34;;;;;;;1999.90;999.90;;;10.10;99.90;;;;;;5313357;26;20033;-72
2024/04/16 03:42:00;;;;;;;1999.90;999.90;;;10.10;99.90;;;;;;5312737;26;20037;-72
2024/04/16 03:44:26;;;;;;;1999.90;999.90;;;10.10;99.90;;;;;;5312976;27;20025;-72
2024/04/16 03:46:52;;;;;;;1999.90;999.90;;;10.10;99.90;;;;;;5330031;26;20061;-72
2024/04/16 03:49:18;;;;;;;1999.90;999.90;;;10.10;99.90;;;;;;5347623;26;20024;-72
2024/04/16 03:51:44;;;;;;;1999.90;999.90;;;10.00;99.90;;;;;;5346104;26;20477;-71
2024/04/16 03:54:10;;;;;;;1999.90;999.90;;;9.90;99.90;;;;;;5347844;26;20106;-72
2024/04/16 03:56:36;;;;;;;1999.90;999.90;;;9.90;99.90;;;;;;5326651;26;20029;-72
2024/04/16 03:59:26;;;;;;;1999.90;999.90;;;9.90;99.90;;;;;;5313522;26;20033;-79
2024/04/16 04:01:52;;;;;;;1999.90;999.90;;;9.80;99.90;;;;;;5311441;26;20050;-79
2024/04/16 04:04:18;;;;;;;1999.90;999.90;;;9.90;99.90;;;;;;5312506;26;20406;-79
2024/04/16 04:06:45;;;;;;;1999.90;999.90;;;9.90;99.90;;;;;;5311545;26;20038;-79
2024/04/16 04:09:11;;;;;;;1999.90;999.90;;;9.90;99.90;;;;;;5312279;27;20025;-79
2024/04/16 04:11:37;;;;;;;1999.90;999.90;;;9.90;99.90;;;;;;5312255;26;20037;-78
2024/04/16 04:14:03;;;;;;;1999.90;999.90;;;9.80;99.90;;;;;;5313567;26;20033;-79
2024/04/16 04:16:29;;;;;;;1999.90;999.90;;;9.90;99.90;;;;;;5311382;26;20038;-79
2024/04/16 04:18:55;;;;;;;1999.90;999.90;;;9.90;99.90;;;;;;5312466;27;20029;-79
2024/04/16 04:21:22;;;;;;;1999.90;999.90;;;9.90;99.90;;;;;;5311407;26;20030;-79
2024/04/16 04:23:48;;;;;;;1999.90;999.90;;;9.80;99.90;;;;;;5311091;27;20038;-79
2024/04/16 04:26:14;;;;;;;1999.90;999.90;;;9.70;99.90;;;;;;5311701;26;20033;-78
2024/04/16 04:28:40;;;;;;;59.45;55.28;;;9.70;99.90;;;;;;5312331;27;20022;-79
2024/04/16 04:31:16;;;;;;;95.10;90.28;;;9.70;99.90;;;;;;5311290;26;20033;-79
2024/04/16 04:33:42;;;;;;;1999.90;999.90;;;9.60;99.90;;;;;;5312968;26;20478;-78
2024/04/16 04:36:11;;;;;;;71.05;67.65;;;9.60;99.90;;;;;;5312446;26;20482;-79
2024/04/16 04:38:38;;;;;;;128.40;121.85;;;9.60;99.90;;;;;;5311951;26;20401;-78
2024/04/16 04:41:05;;;;;;;161.73;153.32;;;9.60;99.90;;;;;;5311701;26;20041;-79
2024/04/16 04:43:31;;;;;;;122.25;116.28;;;9.60;99.90;;;;;;5312080;27;20022;-78
2024/04/16 04:45:57;;;;;;;239.20;226.52;;;9.60;99.90;;;;;;5316118;26;20041;-79
2024/04/16 04:48:26;;;;;;;88.85;84.55;;;9.60;99.90;;;;;;5345040;26;20381;-79
2024/04/16 04:50:52;;;;;;;174.90;166.13;;;9.60;99.90;;;;;;5344378;26;20025;-78
2024/04/16 04:53:18;;;;;;;173.15;164.32;;;9.60;99.90;;;;;;5346851;26;20489;-78
2024/04/16 04:55:44;;;;;;;153.10;145.48;;;9.60;99.90;;;;;;5345561;26;20037;-78
2024/04/16 04:58:10;;;;;;;123.45;117.40;;;9.60;99.90;;;;;;5346766;26;20762;-79
2024/04/16 05:00:37;;;;;;;79.40;75.40;;;9.50;99.90;;;;;;5339342;26;20029;-79
2024/04/16 05:03:04;;;;;;;75.55;71.60;;;9.60;99.90;;;;;;5310991;26;20033;-78
2024/04/16 05:05:31;;;;;;;96.78;92.00;;;9.50;99.90;;;;;;5311294;26;20033;-76
2024/04/16 05:07:57;;;;;;;131.65;125.03;;;9.40;99.90;;;;;;5311758;27;20025;-72
2024/04/16 05:10:24;;;;;;;140.80;133.65;;;9.50;99.90;;;;;;5311808;26;20376;-72
2024/04/16 05:12:51;;;;;;;138.23;131.20;;;9.50;99.90;;;;;;5312364;26;20038;-71
2024/04/16 05:15:17;;;;;;;138.02;130.77;;;9.50;99.90;;;;;;5311356;26;20029;-72
2024/04/16 05:17:43;;;;;;;107.25;101.90;;;9.50;99.90;;;;;;5311566;26;20026;-72
2024/04/16 05:20:09;;;;;;;51.00;48.50;;;9.50;99.90;;;;;;5312029;26;20029;-72
2024/04/16 05:22:36;;;;;;;42.83;39.42;;;9.50;99.90;;;;;;5311325;26;20033;-72
2024/04/16 05:25:02;;;;;;;82.47;78.43;;;9.50;99.90;;;;;;5311394;27;20038;-72
2024/04/16 05:27:31;;;;;;;97.10;92.25;;;9.50;99.90;;;;;;5312398;26;20036;-72
2024/04/16 05:29:57;;;;;;;102.63;96.97;;;9.40;99.90;;;;;;5311543;27;20029;-72
2024/04/16 05:32:24;;;;;;;115.32;109.63;;;9.40;99.90;;;;;;5310741;26;20049;-72
2024/04/16 05:34:50;;;;;;;63.53;60.40;;;9.40;99.90;;;;;;5311536;26;20033;-71
2024/04/16 05:37:16;;;;;;;32.28;30.65;;;9.50;99.90;;;;;;5311091;26;20042;-72
2024/04/16 05:39:42;;;;;;;65.28;61.95;;;9.50;99.90;;;;;;5312040;26;20029;-72
2024/04/16 05:42:08;;;;;;;59.95;56.75;;;9.40;99.90;;;;;;5311285;26;20034;-72
2024/04/16 05:44:34;;;;;;;90.03;85.53;;;9.50;99.90;;;;;;5311785;26;20025;-72
2024/04/16 05:47:00;;;;;;;95.63;90.85;;;9.50;99.90;;;;;;5329394;26;20045;-72
2024/04/16 05:49:27;;;;;;;63.05;59.85;;;9.60;99.90;;;;;;5346417;26;20020;-72
2024/04/16 05:51:54;;;;;;;83.07;78.90;;;9.60;99.90;;;;;;5344900;26;20041;-72
2024/04/16 05:54:21;;;;;;;143.63;136.43;;;9.60;99.90;;;;;;5346171;26;20037;-72
2024/04/16 05:56:47;;;;;;;171.95;162.85;;;9.60;99.90;;;;;;5322424;26;20381;-72
2024/04/16 05:59:13;;;;;;;65.15;61.88;;;9.50;99.90;;;;;;5311159;27;20030;-72
2024/04/16 06:01:39;;;;;;;48.17;45.60;;;9.60;99.90;;;;;;5309652;26;20363;-72
2024/04/16 06:04:06;;;;;;;56.13;53.17;;;9.60;99.90;;;;;;5311784;26;20030;-72
2024/04/16 06:06:32;;;;;;;159.75;151.35;;;9.50;99.90;;;;;;5310600;26;20029;-72
2024/04/16 06:08:58;;;;;;;80.57;76.55;;;9.60;99.90;;;;;;5310781;27;20033;-72
2024/04/16 06:11:24;;;;;;;54.33;51.53;;;9.60;99.90;;;;;;5311115;26;20038;-72
2024/04/16 06:13:50;;;;;;;50.63;48.08;;;9.60;99.90;;;;;;5311122;26;20359;-78
2024/04/16 06:16:17;;;;;;;119.30;113.20;;;9.60;99.90;;;;;;5309308;26;20034;-79
2024/04/16 06:18:43;;;;;;;105.45;99.93;;;9.60;99.90;;;;;;5311225;26;20366;-79
2024/04/16 06:21:11;;;;;;;93.35;88.70;;;9.70;99.90;;;;;;5310266;26;20042;-78
2024/04/16 06:23:38;;;;;;;110.38;104.47;;;9.70;99.90;;;;;;5310910;26;20483;-79
2024/04/16 06:26:10;;;;;;;99.43;94.40;;;9.80;99.90;;;;;;5310023;26;20029;-78
2024/04/16 06:28:36;;;;;;;84.25;79.93;;;9.70;99.90;;;;;;5310334;27;20030;-78
2024/04/16 06:31:02;;;;;;;111.60;105.75;;;9.70;99.90;;;;;;5309296;26;20029;-78
2024/04/16 06:33:28;;;;;;;43.53;41.38;;;9.80;99.90;;;;;;5308814;27;20022;-78
2024/04/16 06:35:54;;;;;;;74.78;70.40;;;9.80;99.90;;;;;;5309583;26;20499;-78
2024/04/16 06:38:24;;;;;;;42.33;40.17;;;9.80;99.90;;;;;;5310013;26;20030;-78
2024/04/16 06:40:51;;;;;;;127.50;121.20;;;9.90;99.90;;;;;;5308236;26;20037;-78
2024/04/16 06:43:17;;;;;;;66.38;63.03;;;10.00;99.90;;;;;;5308519;27;20029;-78
2024/04/16 06:45:43;;;;;;;82.35;78.20;;;10.10;99.90;;;;;;5310032;26;20032;-78
2024/04/16 06:48:09;;;;;;;98.78;93.65;;;10.20;99.90;;;;;;5346873;26;20365;-79
2024/04/16 06:50:35;;;;;;;49.35;46.78;;;10.20;99.90;;;;;;5347857;26;20288;-78
2024/04/16 06:53:02;;;;;;;61.70;58.53;;;10.20;99.90;;;;;;5347672;26;20373;-78
2024/04/16 06:55:30;;;;;;;37.67;35.78;;;10.20;99.90;;;;;;5344304;26;20124;-78
2024/04/16 06:57:57;;;;;;;63.28;59.63;;;10.30;99.90;;;;;;5313161;27;20355;-78
2024/04/16 07:00:24;;;;;;;62.63;59.22;;;10.30;99.90;;;;;;5312810;26;20061;-78
2024/04/16 07:02:50;;;;;;;68.20;64.72;;;10.40;99.90;;;;;;5311227;27;20022;-78
2024/04/16 07:05:16;;;;;;;63.55;59.50;;;10.40;99.90;;;;;;5312540;26;20033;-78
2024/04/16 07:07:42;;;;;;;41.15;39.15;;;10.40;99.90;;;;;;5313191;27;20026;-78
2024/04/16 07:10:08;;;;;;;45.35;43.05;;;10.40;99.90;;;;;;5312955;27;20033;-78
2024/04/16 07:12:34;;;;;;;33.05;31.25;;;10.50;99.90;;;;;;5312348;26;20033;-77
2024/04/16 07:15:00;;;;;;;47.03;44.72;;;10.50;99.90;;;;;;5312515;26;20030;-78
2024/04/16 07:17:28;;;;;;;552.35;298.98;;;10.60;99.90;;;;;;5310584;26;20031;-78
2024/04/16 07:19:54;;;;;;;1999.90;999.90;;;10.60;99.90;;;;;;5313482;26;20065;-77
2024/04/16 07:22:20;;;;;;;1999.90;999.90;;;10.60;99.90;;;;;;5312842;26;20029;-78
2024/04/16 07:24:46;;;;;;;1999.90;999.90;;;10.60;99.90;;;;;;5312970;27;20025;-78
2024/04/16 07:27:12;;;;;;;1999.90;999.90;;;10.60;99.90;;;;;;5312536;26;20033;-78
2024/04/16 07:29:38;;;;;;;1999.90;999.90;;;10.60;99.90;;;;;;5312683;27;20390;-78
2024/04/16 07:32:04;;;;;;;1999.90;999.90;;;10.70;99.90;;;;;;5312082;26;20037;-78
2024/04/16 07:34:30;;;;;;;1999.90;999.90;;;10.80;99.90;;;;;;5313523;26;20519;-78
2024/04/16 07:36:57;;;;;;;1999.90;999.90;;;10.80;99.90;;;;;;5312271;26;20038;-78
2024/04/16 07:39:23;;;;;;;1999.90;999.90;;;10.90;99.90;;;;;;5312596;26;20387;-78
2024/04/16 07:41:49;;;;;;;1999.90;999.90;;;10.90;99.90;;;;;;5313497;26;20058;-78
2024/04/16 07:44:17;;;;;;;1999.90;999.90;;;11.00;99.90;;;;;;5313284;26;20030;-77
2024/04/16 07:46:43;;;;;;;1999.90;999.90;;;11.10;99.90;;;;;;5327729;26;20036;-79
2024/04/16 07:49:09;;;;;;;1999.90;999.90;;;11.30;99.90;;;;;;5347738;26;20025;-79
2024/04/16 07:51:35;;;;;;;1999.90;999.90;;;11.40;99.90;;;;;;5346926;26;20032;-78
2024/04/16 07:54:01;;;;;;;1999.90;999.90;;;11.60;99.90;;;;;;5346963;26;20053;-72
2024/04/16 07:56:27;;;;;;;1999.90;999.90;;;11.70;99.90;;;;;;5328492;26;20026;-72
2024/04/16 07:58:53;;;;;;;1999.90;999.90;;;11.80;99.90;;;;;;5312565;26;20361;-71
2024/04/16 08:01:20;;;;;;;1999.90;999.90;;;11.80;99.90;;;;;;5312058;26;20037;-72
2024/04/16 08:03:46;;;;;;;1999.90;999.90;;;11.80;99.90;;;;;;5312687;27;20503;-72
2024/04/16 08:06:12;;;;;;;1999.90;999.90;;;11.90;99.90;;;;;;5312157;26;20033;-72
2024/04/16 08:08:38;;;;;;;1999.90;999.90;;;12.00;99.90;;;;;;5312781;27;20371;-72
2024/04/16 08:11:11;;;;;;;1999.90;999.90;;;12.10;99.90;;;;;;5312264;26;20041;-72
2024/04/16 08:13:37;;;;;;;1999.90;999.90;;;12.10;99.90;;;;;;5312385;27;20038;-72
2024/04/16 08:16:07;;;;;;;1999.90;999.90;;;12.10;99.90;;;;;;5312164;26;20376;-72
2024/04/16 08:18:33;;;;;;;1999.90;999.90;;;12.20;99.90;;;;;;5312490;26;20026;-72
2024/04/16 08:20:59;;;;;;;1999.90;999.90;;;12.20;99.90;;;;;;5312492;26;20033;-72
2024/04/16 08:23:25;;;;;;;1999.90;999.90;;;12.30;99.90;;;;;;5313024;26;20025;-72
2024/04/16 08:25:58;;;;;;;1999.90;999.90;;;12.30;99.90;;;;;;5312094;26;20045;-72
2024/04/16 08:28:24;;;;;;;1999.90;999.90;;;12.40;99.90;;;;;;5310638;27;20713;-72
2024/04/16 08:30:53;;;;;;;1999.90;999.90;;;12.40;99.90;;;;;;5312279;26;20033;-71
2024/04/16 08:33:20;;;;;;;1999.90;999.90;;;12.50;99.90;;;;;;5312860;26;20029;-72
2024/04/16 08:35:47;;;;;;;1999.90;999.90;;;12.60;99.90;;;;;;5312702;26;20038;-72
2024/04/16 08:38:30;;;;;;;1999.90;999.90;;;12.80;99.90;;;;;;5312585;26;20383;-71
2024/04/16 08:41:04;;;;;;;1999.90;999.90;;;13.10;99.90;;;;;;5311265;26;20030;-72
2024/04/16 08:43:33;;;;;;;1999.90;999.90;;;13.20;99.90;;;;;;5312780;26;20033;-71
2024/04/16 08:46:01;;;;;;;1999.90;999.90;;;13.40;99.90;;;;;;5287147;26;20381;-72
2024/04/16 08:48:29;;;;;;;1999.90;999.90;;;13.40;99.90;;;;;;5347046;26;20025;-72
2024/04/16 08:50:59;;;;;;;1999.90;999.90;;;13.30;99.90;;;;;;5346662;26;20032;-72
2024/04/16 08:53:25;;;;;;;1999.90;999.90;;;13.40;99.90;;;;;;5316962;26;20409;-72
2024/04/16 08:55:52;;;;;;;1999.90;999.90;;;13.50;99.90;;;;;;5344370;26;20008;-79
2024/04/16 08:58:18;;;;;;;1999.90;999.90;;;13.50;99.90;;;;;;5315995;26;20377;-79
2024/04/16 09:00:44;;;;;;;1999.90;999.90;;;13.50;99.90;;;;;;5337621;26;20046;-79
2024/04/16 09:03:11;;;;;;;1999.90;999.90;;;13.50;99.90;;;;;;5281979;27;20035;-78
2024/04/16 09:05:37;;;;;;;1999.90;999.90;;;13.60;99.90;;;;;;5309786;26;20030;-79
2024/04/16 09:08:03;;;;;;;1999.90;999.90;;;13.60;99.90;;;;;;5309780;27;20034;-79
2024/04/16 09:10:29;;;;;;;1999.90;999.90;;;13.90;99.90;;;;;;5309847;26;20034;-79
2024/04/16 09:12:55;;;;;;;1999.90;999.90;;;14.10;99.90;;;;;;5311593;27;20037;-78
2024/04/16 09:15:21;;;;;;;1999.90;999.90;;;14.00;99.90;;;;;;5309115;26;20034;-79
2024/04/16 09:17:52;;;;;;;1999.90;999.90;;;13.90;99.90;;;;;;5312799;26;20365;-79
2024/04/16 09:20:19;;;;;;;1999.90;999.90;;;13.80;99.90;;;;;;5311023;26;20471;-78
2024/04/16 09:22:49;;;;;;;1999.90;999.90;;;13.80;99.90;;;;;;5310026;27;20288;-79
2024/04/16 09:25:16;;;;;;;1999.90;999.90;;;13.80;99.90;;;;;;5310794;26;20487;-79
2024/04/16 09:27:48;;;;;;;1999.90;999.90;;;13.80;99.90;;;;;;5311394;27;20037;-79
2024/04/16 09:30:14;;;;;;;1999.90;999.90;;;13.90;99.90;;;;;;5311276;26;20395;-79
2024/04/16 09:32:42;;;;;;;1999.90;999.90;;;14.00;99.90;;;;;;5311495;27;20022;-79
2024/04/16 09:35:08;;;;;;;1999.90;999.90;;;14.20;99.90;;;;;;5310992;27;20033;-79
2024/04/16 09:37:34;;;;;;;1999.90;999.90;;;14.00;99.90;;;;;;5310993;26;20037;-79
2024/04/16 09:40:01;;;;;;;1999.90;999.90;;;13.90;99.90;;;;;;5310594;27;20034;-79
2024/04/16 09:42:27;;;;;;;1999.90;999.90;;;13.80;99.90;;;;;;5309041;26;20033;-78
2024/04/16 09:44:54;;;;;;;1999.90;999.90;;;13.80;99.90;;;;;;5309397;27;20022;-80
2024/04/16 09:47:20;;;;;;;1999.90;999.90;;;14.00;99.90;;;;;;5334428;26;20044;-79
2024/04/16 09:49:46;;;;;;;1999.90;999.90;;;14.20;99.90;;;;;;5315350;26;20033;-79
2024/04/16 09:52:13;;;;;;;1999.90;999.90;;;14.20;99.90;;;;;;5343041;26;20038;-80
2024/04/16 09:54:43;;;;;;;1999.90;999.90;;;14.10;99.90;;;;;;5343564;26;20025;-79
2024/04/16 09:57:13;;;;;;;1999.90;999.90;;;14.10;99.90;;;;;;5314536;26;20032;-79
2024/04/16 09:59:43;;;;;;;1999.90;999.90;;;14.00;99.90;;;;;;5343714;26;20025;-79
2024/04/16 10:02:09;;;;;;;1999.90;999.90;;;14.10;99.90;;;;;;5343061;26;20037;-78
2024/04/16 10:04:35;;;;;;;1999.90;999.90;;;14.10;99.90;;;;;;5345502;26;20029;-79
2024/04/16 10:07:03;;;;;;;1999.90;999.90;;;14.40;99.90;;;;;;5318235;26;20148;-78
2024/04/16 10:09:29;;;;;;;1999.90;999.90;;;14.50;99.90;;;;;;5310572;26;20029;-80
2024/04/16 10:11:56;;;;;;;1999.90;999.90;;;14.50;99.90;;;;;;5308667;26;20029;-79
2024/04/16 10:14:23;;;;;;;1999.90;999.90;;;14.40;99.90;;;;;;5280585;27;20029;-79
2024/04/16 10:16:50;;;;;;;1999.90;999.90;;;14.40;99.90;;;;;;5309814;26;20049;-79
2024/04/16 10:19:17;;;;;;;1999.90;999.90;;;14.30;99.90;;;;;;5310626;27;20039;-79
2024/04/16 10:21:45;;;;;;;1999.90;999.90;;;14.20;99.90;;;;;;5309203;26;20030;-79
2024/04/16 10:24:13;;;;;;;1999.90;999.90;;;14.20;99.90;;;;;;5313236;27;20030;-78
2024/04/16 10:26:42;;;;;;;1999.90;999.90;;;14.10;99.90;;;;;;5314257;26;20029;-79
2024/04/16 10:29:18;;;;;;;1999.90;999.90;;;14.10;99.90;;;;;;5314688;26;20034;-79
2024/04/16 10:31:50;;;;;;;1999.90;999.90;;;14.10;99.90;;;;;;5312768;26;20033;-80
2024/04/16 10:34:22;;;;;;;1999.90;999.90;;;14.10;99.90;;;;;;5313477;27;20038;-79
2024/04/16 10:36:52;;;;;;;1999.90;999.90;;;13.90;99.90;;;;;;5313938;26;20034;-78
2024/04/16 10:39:18;;;;;;;1999.90;999.90;;;13.80;99.90;;;;;;5313408;27;20478;-78
2024/04/16 10:41:51;;;;;;;1999.90;999.90;;;13.70;99.90;;;;;;5314170;26;20384;-79
2024/04/16 10:44:17;;;;;;;1999.90;999.90;;;13.60;99.90;;;;;;5311704;27;20033;-79
2024/04/16 10:46:44;;;;;;;1999.90;999.90;;;13.70;99.90;;;;;;5326780;26;20381;-72
2024/04/16 10:49:13;;;;;;;1999.90;999.90;;;13.80;99.90;;;;;;5348079;26;20358;-72
2024/04/16 10:51:40;;;;;;;1999.90;999.90;;;13.80;99.90;;;;;;5347061;26;20029;-72
2024/04/16 10:54:07;;;;;;;1999.90;999.90;;;13.80;99.90;;;;;;5346448;26;20025;-72
2024/04/16 10:56:36;;;;;;;1999.90;999.90;;;13.80;99.90;;;;;;5328179;26;20042;-72
2024/04/16 10:59:06;;;;;;;1999.90;999.90;;;13.70;99.90;;;;;;5313703;26;20030;-72
2024/04/16 11:01:33;;;;;;;1999.90;999.90;;;13.80;99.90;;;;;;5312640;26;20033;-72
2024/04/16 11:04:25;;;;;;;1999.90;999.90;;;13.80;99.90;;;;;;5284144;27;20022;-72
2024/04/16 11:06:51;;;;;;;1999.90;999.90;;;13.90;99.90;;;;;;5312570;26;20037;-71
2024/04/16 11:09:18;;;;;;;1999.90;999.90;;;13.90;99.90;;;;;;5313499;27;20021;-72
2024/04/16 11:11:44;;;;;;;1999.90;999.90;;;13.90;99.90;;;;;;5313473;26;20033;-72
2024/04/16 11:14:10;;;;;;;1999.90;999.90;;;13.90;99.90;;;;;;5314052;26;20365;-72
2024/04/16 11:16:36;;;;;;;1999.90;999.90;;;13.80;99.90;;;;;;5313194;26;20112;-72
2024/04/16 11:19:03;;;;;;;1999.90;999.90;;;13.80;99.90;;;;;;5311510;27;20026;-72
2024/04/16 11:21:34;;;;;;;1999.90;999.90;;;13.80;99.90;;;;;;5310935;26;20041;-72
2024/04/16 11:24:02;;;;;;;1999.90;999.90;;;13.90;99.90;;;;;;5311449;27;20042;-72
2024/04/16 11:26:28;;;;;;;1999.90;999.90;;;14.00;99.90;;;;;;5311336;26;20100;-72
2024/04/16 11:28:54;;;;;;;1999.90;999.90;;;14.00;99.90;;;;;;5313508;26;20062;-72
2024/04/16 11:31:20;;;;;;;1999.90;999.90;;;14.10;99.90;;;;;;5312172;26;20030;-72
2024/04/16 11:33:46;;;;;;;1999.90;999.90;;;14.00;99.90;;;;;;5312311;27;20038;-72
2024/04/16 11:36:17;;;;;;;1999.90;999.90;;;13.90;99.90;;;;;;5312674;26;20030;-72
2024/04/16 11:38:43;;;;;;;1999.90;999.90;;;13.90;99.90;;;;;;5313538;26;20038;-72
2024/04/16 11:41:09;;;;;;;1999.90;999.90;;;14.00;99.90;;;;;;5311126;26;20106;-72
2024/04/16 11:43:35;;;;;;;1999.90;999.90;;;14.10;99.90;;;;;;5312975;26;20470;-72
2024/04/16 11:46:07;;;;;;;1999.90;999.90;;;14.30;99.90;;;;;;5318006;26;20034;-72
2024/04/16 11:48:34;;;;;;;1999.90;999.90;;;14.30;99.90;;;;;;5347242;26;20028;-72
2024/04/16 11:51:01;;;;;;;1999.90;999.90;;;14.40;99.90;;;;;;5345967;26;20037;-72
2024/04/16 11:53:27;;;;;;;1999.90;999.90;;;14.30;99.90;;;;;;5347595;26;20049;-79
2024/04/16 11:55:53;;;;;;;1999.90;999.90;;;14.10;99.90;;;;;;5336364;26;20034;-78
2024/04/16 11:58:19;;;;;;;1999.90;999.90;;;14.20;99.90;;;;;;5313664;26;20021;-79
2024/04/16 12:00:45;;;;;;;1999.90;999.90;;;14.10;99.90;;;;;;5310042;26;20033;-78
2024/04/16 12:03:12;;;;;;;1999.90;999.90;;;14.00;99.90;;;;;;5312415;27;20373;-79
2024/04/16 12:05:38;;;;;;;1999.90;999.90;;;13.90;99.90;;;;;;5311845;26;20029;-80